createdAt,value
2023-05-09T00:01:42.664Z,15.77
2023-05-09T00:04:10.088Z,15.81
2023-05-09T00:06:37.053Z,15.83
2023-05-09T00:09:04.610Z,15.84
2023-05-09T00:11:31.584Z,15.84
2023-05-09T00:13:58.472Z,15.86
2023-05-09T00:16:25.434Z,15.83
2023-05-09T00:18:53.937Z,15.73
2023-05-09T00:21:20.849Z,15.41
2023-05-09T00:23:47.685Z,15.37
2023-05-09T00:26:14.531Z,15.27
2023-05-09T00:28:43.571Z,15.20
2023-05-09T00:31:10.624Z,15.24
2023-05-09T00:33:37.455Z,15.30
2023-05-09T00:36:06.672Z,15.34
2023-05-09T00:38:34.176Z,15.37
2023-05-09T00:41:01.050Z,15.35
2023-05-09T00:43:27.957Z,15.34
2023-05-09T00:45:55.381Z,15.36
2023-05-09T00:48:22.368Z,15.37
2023-05-09T00:50:49.239Z,15.24
2023-05-09T00:53:17.479Z,15.06
2023-05-09T00:55:44.995Z,14.94
2023-05-09T00:58:13.535Z,14.87
2023-05-09T01:00:40.776Z,14.84
2023-05-09T01:03:08.081Z,14.67
2023-05-09T01:05:52.090Z,14.65
2023-05-09T01:08:41.386Z,14.72
2023-05-09T01:11:18.393Z,14.81
2023-05-09T01:14:03.106Z,14.91
2023-05-09T01:16:38.670Z,15.02
2023-05-09T01:19:36.351Z,15.09
2023-05-09T01:22:09.140Z,15.17
2023-05-09T01:25:20.269Z,15.17
2023-05-09T01:27:58.460Z,15.08
2023-05-09T01:30:31.021Z,14.94
2023-05-09T01:33:21.609Z,14.88
2023-05-09T01:35:57.769Z,14.84
2023-05-09T01:38:33.821Z,14.78
2023-05-09T01:41:03.011Z,14.76
2023-05-09T01:43:32.820Z,14.82
2023-05-09T01:46:04.744Z,14.89
2023-05-09T01:48:35.835Z,15.01
2023-05-09T01:51:04.649Z,15.07
2023-05-09T01:53:36.009Z,15.17
2023-05-09T01:56:06.310Z,15.24
2023-05-09T01:58:35.587Z,15.30
2023-05-09T02:08:47.210Z,15.27
2023-05-09T02:11:15.888Z,14.97
2023-05-09T02:18:29.729Z,15.12
2023-05-09T02:20:58.642Z,15.21
2023-05-09T02:23:26.159Z,15.28
2023-05-09T02:25:53.261Z,15.35
2023-05-09T02:28:22.856Z,15.40
2023-05-09T02:30:53.082Z,15.45
2023-05-09T02:33:20.058Z,15.49
2023-05-09T02:35:47.844Z,15.43
2023-05-09T02:38:16.424Z,15.03
2023-05-09T02:40:43.782Z,15.10
2023-05-09T02:43:10.934Z,15.17
2023-05-09T02:45:37.743Z,14.99
2023-05-09T02:48:08.508Z,14.85
2023-05-09T02:50:36.131Z,14.87
2023-05-09T02:53:02.924Z,15.01
2023-05-09T02:55:31.239Z,15.10
2023-05-09T02:58:12.049Z,15.20
2023-05-09T03:00:41.021Z,15.32
2023-05-09T03:03:09.204Z,15.41
2023-05-09T03:05:36.214Z,15.47
2023-05-09T03:16:56.465Z,14.92
2023-05-09T03:19:37.708Z,14.71
2023-05-09T03:22:05.890Z,14.79
2023-05-09T03:24:37.535Z,14.89
2023-05-09T03:28:03.788Z,14.94
2023-05-09T03:30:32.468Z,15.11
2023-05-09T03:32:59.763Z,15.24
2023-05-09T03:35:26.849Z,15.35
2023-05-09T03:37:54.803Z,15.13
2023-05-09T03:40:22.083Z,15.17
2023-05-09T03:42:55.851Z,15.17
2023-05-09T03:45:22.772Z,15.23
2023-05-09T03:47:51.132Z,15.34
2023-05-09T03:50:18.708Z,15.39
2023-05-09T03:52:46.524Z,15.47
2023-05-09T03:55:16.357Z,15.51
2023-05-09T03:58:09.614Z,15.61
2023-05-09T04:00:41.778Z,15.67
2023-05-09T04:03:16.391Z,15.61
2023-05-09T04:05:46.888Z,15.66
2023-05-09T04:08:23.637Z,15.71
2023-05-09T04:10:51.140Z,15.65
2023-05-09T04:13:18.307Z,15.65
2023-05-09T04:15:46.263Z,15.57
2023-05-09T04:18:14.789Z,15.66
2023-05-09T04:20:41.675Z,15.73
2023-05-09T04:23:08.788Z,15.69
2023-05-09T04:25:36.032Z,15.60
2023-05-09T04:28:03.633Z,15.55
2023-05-09T04:30:30.818Z,15.69
2023-05-09T04:32:58.591Z,15.60
2023-05-09T04:35:30.028Z,15.20
2023-05-09T04:37:57.483Z,14.95
2023-05-09T04:40:26.904Z,14.91
2023-05-09T04:42:58.218Z,14.91
2023-05-09T04:45:28.940Z,14.90
2023-05-09T04:47:58.385Z,15.04
2023-05-09T04:50:25.397Z,15.17
2023-05-09T04:52:53.559Z,15.33
2023-05-09T04:55:20.683Z,15.41
2023-05-09T04:57:49.889Z,15.47
2023-05-09T05:00:17.226Z,15.63
2023-05-09T05:02:46.882Z,15.73
2023-05-09T05:05:14.638Z,15.41
2023-05-09T05:07:43.341Z,15.52
2023-05-09T05:10:14.379Z,15.73
2023-05-09T05:12:45.127Z,15.87
2023-05-09T05:15:13.940Z,15.98
2023-05-09T05:17:42.671Z,16.10
2023-05-09T05:20:11.134Z,16.22
2023-05-09T05:22:42.867Z,16.32
2023-05-09T05:25:10.462Z,16.42
2023-05-09T05:27:40.092Z,16.51
2023-05-09T05:30:09.572Z,16.53
2023-05-09T05:32:37.069Z,16.19
2023-05-09T05:35:05.142Z,16.00
2023-05-09T05:37:35.255Z,16.17
2023-05-09T05:40:02.780Z,16.30
2023-05-09T05:42:30.409Z,16.40
2023-05-09T05:44:59.183Z,16.58
2023-05-09T05:47:26.247Z,16.73
2023-05-09T05:49:53.669Z,16.85
2023-05-09T05:52:20.508Z,16.97
2023-05-09T05:54:47.355Z,17.04
2023-05-09T05:57:14.630Z,17.13
2023-05-09T05:59:41.634Z,17.21
2023-05-09T06:02:10.132Z,17.28
2023-05-09T06:04:37.057Z,17.32
2023-05-09T06:07:04.049Z,17.38
2023-05-09T06:09:30.980Z,17.47
2023-05-09T06:11:57.990Z,17.55
2023-05-09T06:14:25.438Z,17.67
2023-05-09T06:16:54.651Z,17.76
2023-05-09T06:19:22.907Z,17.88
2023-05-09T06:21:49.880Z,18.04
2023-05-09T06:24:31.679Z,18.18
2023-05-09T06:27:04.431Z,18.38
2023-05-09T06:29:31.308Z,18.51
2023-05-09T06:32:00.286Z,18.60
2023-05-09T06:34:28.522Z,17.87
2023-05-09T06:36:55.457Z,17.88
2023-05-09T06:39:22.384Z,17.95
2023-05-09T06:41:49.316Z,17.98
2023-05-09T06:44:24.505Z,18.24
2023-05-09T06:46:51.566Z,18.48
2023-05-09T06:49:18.373Z,17.83
2023-05-09T06:51:46.748Z,17.32
2023-05-09T06:54:13.542Z,17.75
2023-05-09T06:56:40.511Z,18.55
2023-05-09T06:59:07.553Z,19.16
2023-05-09T07:01:34.355Z,19.87
2023-05-09T07:04:01.163Z,18.35
2023-05-09T07:06:28.037Z,18.29
2023-05-09T07:08:56.173Z,17.70
2023-05-09T07:11:23.074Z,17.66
2023-05-09T07:13:50.010Z,18.00
2023-05-09T07:16:19.082Z,18.18
2023-05-09T07:18:46.286Z,17.52
2023-05-09T07:21:13.201Z,17.42
2023-05-09T07:23:39.967Z,17.51
2023-05-09T07:26:08.242Z,18.10
2023-05-09T07:28:35.325Z,18.30
2023-05-09T07:31:02.174Z,18.14
2023-05-09T07:33:29.409Z,18.45
2023-05-09T07:35:58.518Z,18.48
2023-05-09T07:38:25.572Z,18.25
2023-05-09T07:40:52.397Z,18.67
2023-05-09T07:43:20.713Z,18.67
2023-05-09T07:45:47.536Z,18.82
2023-05-09T07:48:14.648Z,18.94
2023-05-09T07:50:41.525Z,18.99
2023-05-09T07:53:09.167Z,18.93
2023-05-09T07:55:36.312Z,18.83
2023-05-09T07:58:03.202Z,18.78
2023-05-09T08:00:32.458Z,18.66
2023-05-09T08:03:00.028Z,19.16
2023-05-09T08:05:28.157Z,19.34
2023-05-09T08:07:54.927Z,19.06
2023-05-09T08:10:21.913Z,19.00
2023-05-09T08:12:48.929Z,18.78
2023-05-09T08:15:16.494Z,18.83
2023-05-09T08:17:44.999Z,19.25
2023-05-09T08:20:13.201Z,19.99
2023-05-09T08:22:40.666Z,19.81
2023-05-09T08:25:09.123Z,20.23
2023-05-09T08:27:37.299Z,19.74
2023-05-09T08:30:06.008Z,19.63
2023-05-09T08:32:33.864Z,20.03
2023-05-09T08:35:02.180Z,20.31
2023-05-09T08:37:30.197Z,20.45
2023-05-09T08:39:57.099Z,20.36
2023-05-09T08:42:26.789Z,20.69
2023-05-09T08:44:53.863Z,20.86
2023-05-09T08:47:23.322Z,21.29
2023-05-09T08:49:52.187Z,21.83
2023-05-09T08:52:21.713Z,21.77
2023-05-09T08:54:49.341Z,21.68
2023-05-09T08:57:16.388Z,21.86
2023-05-09T08:59:44.078Z,21.62
2023-05-09T09:02:14.241Z,21.97
2023-05-09T09:04:41.694Z,22.54
2023-05-09T09:07:10.830Z,22.60
2023-05-09T09:09:45.995Z,22.70
2023-05-09T09:12:16.070Z,21.85
2023-05-09T09:14:48.893Z,21.22
2023-05-09T09:17:21.143Z,21.16
2023-05-09T09:19:55.030Z,20.71
2023-05-09T09:22:23.130Z,20.72
2023-05-09T09:24:51.884Z,21.10
2023-05-09T09:27:18.792Z,20.82
2023-05-09T09:29:45.659Z,20.83
2023-05-09T09:32:13.158Z,20.65
2023-05-09T09:34:40.338Z,21.08
2023-05-09T09:37:07.695Z,20.83
2023-05-09T09:39:35.312Z,20.03
2023-05-09T09:42:13.073Z,20.47
2023-05-09T09:44:40.023Z,20.70
2023-05-09T09:47:10.516Z,20.98
2023-05-09T09:49:37.439Z,20.23
2023-05-09T09:52:04.378Z,20.65
2023-05-09T09:54:32.150Z,20.74
2023-05-09T09:56:59.076Z,21.24
2023-05-09T09:59:27.816Z,21.28
2023-05-09T10:02:02.937Z,21.32
2023-05-09T10:04:35.808Z,21.71
2023-05-09T10:07:05.260Z,21.85
2023-05-09T10:09:34.741Z,21.61
2023-05-09T10:12:05.195Z,21.59
2023-05-09T10:14:36.102Z,21.92
2023-05-09T10:17:32.190Z,22.95
2023-05-09T10:20:05.883Z,23.46
2023-05-09T10:22:36.514Z,22.90
2023-05-09T10:25:08.772Z,23.39
2023-05-09T10:27:37.708Z,23.18
2023-05-09T10:30:13.205Z,22.52
2023-05-09T10:32:51.973Z,22.54
2023-05-09T10:35:26.191Z,23.33
2023-05-09T10:37:56.309Z,23.44
2023-05-09T10:40:24.168Z,23.86
2023-05-09T10:42:51.268Z,23.01
2023-05-09T10:45:21.094Z,22.65
2023-05-09T10:47:51.698Z,22.68
2023-05-09T10:50:20.156Z,23.30
2023-05-09T10:53:10.448Z,23.94
2023-05-09T10:55:40.475Z,23.47
2023-05-09T10:58:23.596Z,23.70
2023-05-09T11:00:53.832Z,23.73
2023-05-09T11:03:23.871Z,23.11
2023-05-09T11:05:53.520Z,23.08
2023-05-09T11:08:26.064Z,23.26
2023-05-09T11:10:54.344Z,23.64
2023-05-09T11:13:23.475Z,23.67
2023-05-09T11:16:04.585Z,23.16
2023-05-09T11:18:33.719Z,23.30
2023-05-09T11:21:08.473Z,24.05
2023-05-09T11:23:35.536Z,23.78
2023-05-09T11:26:07.737Z,22.58
2023-05-09T11:28:37.021Z,23.12
2023-05-09T11:31:12.391Z,23.43
2023-05-09T11:33:42.471Z,23.21
2023-05-09T11:36:20.601Z,23.07
2023-05-09T11:38:47.966Z,23.19
2023-05-09T11:41:15.700Z,23.56
2023-05-09T11:43:43.710Z,23.21
2023-05-09T11:46:10.618Z,23.89
2023-05-09T11:48:40.581Z,23.40
2023-05-09T11:51:07.813Z,23.76
2023-05-09T11:53:34.758Z,23.92
2023-05-09T11:56:04.594Z,23.64
2023-05-09T11:58:34.027Z,23.50
2023-05-09T12:01:01.570Z,23.34
2023-05-09T12:03:29.431Z,23.12
2023-05-09T12:05:57.789Z,22.95
2023-05-09T12:08:25.192Z,22.88
2023-05-09T12:10:52.004Z,22.88
2023-05-09T12:13:19.133Z,22.98
2023-05-09T12:15:46.061Z,23.11
2023-05-09T12:18:13.192Z,22.81
2023-05-09T12:20:42.731Z,23.06
2023-05-09T12:23:11.678Z,22.78
2023-05-09T12:25:38.730Z,23.14
2023-05-09T12:28:06.344Z,23.28
2023-05-09T12:30:33.893Z,23.72
2023-05-09T12:33:01.070Z,23.45
2023-05-09T12:35:27.923Z,23.81
2023-05-09T12:37:55.995Z,23.89
2023-05-09T12:40:25.018Z,23.83
2023-05-09T12:42:51.980Z,23.34
2023-05-09T12:45:20.449Z,23.11
2023-05-09T12:47:52.204Z,22.85
2023-05-09T12:50:19.625Z,23.19
2023-05-09T12:53:02.578Z,23.00
2023-05-09T12:55:39.287Z,23.07
2023-05-09T12:58:06.149Z,22.89
2023-05-09T13:00:43.868Z,22.93
2023-05-09T13:03:29.790Z,23.19
2023-05-09T13:06:01.483Z,23.00
2023-05-09T13:08:29.985Z,22.98
2023-05-09T13:11:12.000Z,22.97
2023-05-09T13:13:42.895Z,22.86
2023-05-09T13:16:11.496Z,23.28
2023-05-09T13:18:39.614Z,22.79
2023-05-09T13:21:07.313Z,22.65
2023-05-09T13:23:34.283Z,22.80
2023-05-09T13:26:02.622Z,23.00
2023-05-09T13:28:30.781Z,22.78
2023-05-09T13:30:57.945Z,22.81
2023-05-09T13:33:26.572Z,22.94
2023-05-09T13:35:53.922Z,23.01
2023-05-09T13:38:21.835Z,23.04
2023-05-09T13:40:48.712Z,22.90
2023-05-09T13:43:18.066Z,23.00
2023-05-09T13:45:45.582Z,23.06
2023-05-09T13:48:12.515Z,22.98
2023-05-09T13:50:39.459Z,23.04
2023-05-09T13:53:09.301Z,23.01
2023-05-09T13:55:37.245Z,23.05
2023-05-09T13:58:04.691Z,22.73
2023-05-09T14:00:34.969Z,22.57
2023-05-09T14:03:03.190Z,22.69
2023-05-09T14:05:31.671Z,22.49
2023-05-09T14:07:58.508Z,22.76
2023-05-09T14:10:25.550Z,22.71
2023-05-09T14:12:53.569Z,22.91
2023-05-09T14:15:20.824Z,23.12
2023-05-09T14:17:49.268Z,22.93
2023-05-09T14:20:16.903Z,23.06
2023-05-09T14:22:44.656Z,23.21
2023-05-09T14:25:11.655Z,23.45
2023-05-09T14:27:38.587Z,23.56
2023-05-09T14:30:18.697Z,23.58
2023-05-09T14:32:45.541Z,23.57
2023-05-09T14:35:14.076Z,23.08
2023-05-09T14:37:40.994Z,22.93
2023-05-09T14:40:09.709Z,22.89
2023-05-09T14:42:36.610Z,22.88
2023-05-09T14:45:05.940Z,22.87
2023-05-09T14:47:32.838Z,22.95
2023-05-09T14:49:59.676Z,22.85
2023-05-09T14:52:28.089Z,22.73
2023-05-09T14:54:55.019Z,22.54
2023-05-09T14:57:22.762Z,22.78
2023-05-09T14:59:49.717Z,22.67
2023-05-09T15:02:16.566Z,22.49
2023-05-09T15:04:43.674Z,22.49
2023-05-09T15:07:11.053Z,22.33
2023-05-09T15:09:41.204Z,22.36
2023-05-09T15:12:08.243Z,22.58
2023-05-09T15:14:35.440Z,22.49
2023-05-09T15:17:02.628Z,22.25
2023-05-09T15:19:29.714Z,21.69
2023-05-09T15:21:56.603Z,21.46
2023-05-09T15:24:23.461Z,21.27
2023-05-09T15:26:52.095Z,21.32
2023-05-09T15:29:19.026Z,21.29
2023-05-09T15:31:45.909Z,21.31
2023-05-09T15:34:13.013Z,21.37
2023-05-09T15:36:40.114Z,21.49
2023-05-09T15:39:06.913Z,21.57
2023-05-09T15:41:34.974Z,21.71
2023-05-09T15:44:03.242Z,21.83
2023-05-09T15:46:30.327Z,21.94
2023-05-09T15:48:57.406Z,21.99
2023-05-09T15:51:24.717Z,22.00
2023-05-09T15:53:51.739Z,21.60
2023-05-09T15:56:18.850Z,21.63
2023-05-09T15:58:46.780Z,21.77
2023-05-09T16:01:15.143Z,21.77
2023-05-09T16:03:43.108Z,21.62
2023-05-09T16:06:10.069Z,21.59
2023-05-09T16:08:38.909Z,21.47
2023-05-09T16:11:06.729Z,21.36
2023-05-09T16:13:35.702Z,21.34
2023-05-09T16:16:03.788Z,21.35
2023-05-09T16:18:32.605Z,21.34
2023-05-09T16:20:59.429Z,21.35
2023-05-09T16:23:26.217Z,21.41
2023-05-09T16:25:53.569Z,21.38
2023-05-09T16:28:20.504Z,21.41
2023-05-09T16:30:47.610Z,21.36
2023-05-09T16:33:14.391Z,21.42
2023-05-09T16:35:42.709Z,21.38
2023-05-09T16:38:09.651Z,21.38
2023-05-09T16:40:37.062Z,21.37
2023-05-09T16:43:04.060Z,21.19
2023-05-09T16:45:30.921Z,21.13
2023-05-09T16:48:00.708Z,20.99
2023-05-09T16:50:29.025Z,21.00
2023-05-09T16:52:57.225Z,21.06
2023-05-09T16:55:25.176Z,21.16
2023-05-09T16:57:52.280Z,21.24
2023-05-09T17:00:20.768Z,21.24
2023-05-09T17:02:47.731Z,21.28
2023-05-09T17:05:15.043Z,21.29
2023-05-09T17:07:42.746Z,21.27
2023-05-09T17:10:12.712Z,21.32
2023-05-09T17:12:39.560Z,21.35
2023-05-09T17:15:08.970Z,21.32
2023-05-09T17:17:35.850Z,21.28
2023-05-09T17:20:03.197Z,21.26
2023-05-09T17:22:31.394Z,21.24
2023-05-09T17:24:58.343Z,21.19
2023-05-09T17:27:26.744Z,21.10
2023-05-09T17:29:53.601Z,21.07
2023-05-09T17:32:20.455Z,20.94
2023-05-09T17:34:47.328Z,20.87
2023-05-09T17:37:14.360Z,20.80
2023-05-09T17:39:41.904Z,20.70
2023-05-09T17:42:08.727Z,20.63
2023-05-09T17:44:37.005Z,20.63
2023-05-09T17:47:04.238Z,20.44
2023-05-09T17:49:31.063Z,20.40
2023-05-09T17:51:58.193Z,20.28
2023-05-09T17:54:25.355Z,20.24
2023-05-09T17:56:53.691Z,20.13
2023-05-09T17:59:22.205Z,20.09
2023-05-09T18:01:50.560Z,20.03
2023-05-09T18:04:20.149Z,19.83
2023-05-09T18:06:48.704Z,19.57
2023-05-09T18:09:16.493Z,19.60
2023-05-09T18:11:43.341Z,19.64
2023-05-09T18:14:11.171Z,19.61
2023-05-09T18:16:38.250Z,19.43
2023-05-09T18:19:06.583Z,19.27
2023-05-09T18:21:33.456Z,19.16
2023-05-09T18:24:01.130Z,19.15
2023-05-09T18:26:29.246Z,19.14
2023-05-09T18:28:56.533Z,19.10
2023-05-09T18:31:23.966Z,19.09
2023-05-09T18:33:50.818Z,19.10
2023-05-09T18:36:19.116Z,19.08
2023-05-09T18:38:46.036Z,19.06
2023-05-09T18:41:13.614Z,19.01
2023-05-09T18:43:44.242Z,18.99
2023-05-09T18:46:12.482Z,18.97
2023-05-09T18:48:39.313Z,18.92
2023-05-09T18:51:07.091Z,18.88
2023-05-09T18:53:36.354Z,18.84
2023-05-09T18:56:04.611Z,18.79
2023-05-09T18:58:32.349Z,18.65
2023-05-09T19:00:59.803Z,18.58
2023-05-09T19:03:26.782Z,18.57
2023-05-09T19:05:54.695Z,18.59
2023-05-09T19:08:22.003Z,18.57
2023-05-09T19:10:50.468Z,18.56
2023-05-09T19:13:17.522Z,18.59
2023-05-09T19:19:45.388Z,18.59
2023-05-09T19:22:12.689Z,18.57
2023-05-09T19:24:40.015Z,18.59
2023-05-09T19:27:08.333Z,18.58
2023-05-09T19:29:35.227Z,18.54
2023-05-09T19:32:03.412Z,18.49
2023-05-09T19:39:01.940Z,18.43
2023-05-09T19:41:29.352Z,18.44
2023-05-09T19:43:57.523Z,18.46
2023-05-09T19:46:24.668Z,18.42
2023-05-09T19:48:52.398Z,18.36
2023-05-09T19:51:20.395Z,18.29
2023-05-09T19:53:47.320Z,18.28
2023-05-09T19:56:14.251Z,18.23
2023-05-09T19:58:41.100Z,18.24
2023-05-09T20:01:09.410Z,18.27
2023-05-09T20:03:36.364Z,18.26
2023-05-09T20:06:04.301Z,18.25
2023-05-09T20:08:31.363Z,17.97
2023-05-09T20:10:58.225Z,17.87
2023-05-09T20:13:25.672Z,17.83
2023-05-09T20:15:52.780Z,17.83
2023-05-09T20:18:21.082Z,17.79
2023-05-09T20:20:48.169Z,17.82
2023-05-09T20:23:15.169Z,17.77
2023-05-09T20:25:42.108Z,17.66
2023-05-09T20:28:09.656Z,17.70
2023-05-09T20:30:37.387Z,17.75
2023-05-09T20:33:05.379Z,17.80
2023-05-09T20:35:33.800Z,17.76
2023-05-09T20:38:00.671Z,17.63
2023-05-09T20:40:27.928Z,17.53
2023-05-09T20:42:54.849Z,17.40
2023-05-09T20:45:22.136Z,17.33
2023-05-09T20:47:48.989Z,17.25
2023-05-09T20:50:17.109Z,17.33
2023-05-09T20:52:45.834Z,17.25
2023-05-09T20:55:12.690Z,17.17
2023-05-09T20:57:40.778Z,17.15
2023-05-09T21:00:09.454Z,17.16
2023-05-09T21:02:37.864Z,17.15
2023-05-09T21:05:06.256Z,17.04
2023-05-09T21:07:33.206Z,16.82
2023-05-09T21:10:01.463Z,16.47
2023-05-09T21:12:28.505Z,16.20
2023-05-09T21:14:55.323Z,16.05
2023-05-09T21:17:23.550Z,16.11
2023-05-09T21:19:50.672Z,16.05
2023-05-09T21:22:17.821Z,16.06
2023-05-09T21:24:44.945Z,16.21
2023-05-09T21:27:13.604Z,16.31
2023-05-09T21:29:40.715Z,16.30
2023-05-09T21:32:07.633Z,16.19
2023-05-09T21:34:34.832Z,16.18
2023-05-09T21:37:01.639Z,16.21
2023-05-09T21:39:28.504Z,16.32
2023-05-09T21:41:55.712Z,16.25
2023-05-09T21:44:23.936Z,16.32
2023-05-09T21:46:51.150Z,16.42
2023-05-09T21:49:19.078Z,16.51
2023-05-09T21:51:46.240Z,16.51
2023-05-09T21:54:13.189Z,16.49
2023-05-09T21:56:40.333Z,16.33
2023-05-09T21:59:07.394Z,16.25
2023-05-09T22:01:35.966Z,16.31
2023-05-09T22:04:02.976Z,16.40
2023-05-09T22:06:31.161Z,16.48
2023-05-09T22:08:58.233Z,16.40
2023-05-09T22:11:25.240Z,16.43
2023-05-09T22:14:27.813Z,16.45
2023-05-09T22:16:56.165Z,16.52
2023-05-09T22:19:26.331Z,16.53
2023-05-09T22:21:53.532Z,16.39
2023-05-09T22:24:20.354Z,16.34
2023-05-09T22:26:47.649Z,16.16
2023-05-09T22:29:14.635Z,16.10
2023-05-09T22:31:42.255Z,16.10
2023-05-09T22:34:10.580Z,16.12
2023-05-09T22:36:40.266Z,15.79
2023-05-09T22:39:07.537Z,15.73
2023-05-09T22:41:34.611Z,15.53
2023-05-09T22:44:01.518Z,15.66
2023-05-09T22:46:28.567Z,15.76
2023-05-09T22:48:55.957Z,15.90
2023-05-09T22:51:24.278Z,15.94
2023-05-09T22:53:51.187Z,15.96
2023-05-09T22:56:18.079Z,15.89
2023-05-09T22:58:44.963Z,15.90
2023-05-09T23:01:12.217Z,15.83
2023-05-09T23:03:39.351Z,15.84
2023-05-09T23:06:07.105Z,15.60
2023-05-09T23:08:35.418Z,15.36
2023-05-09T23:11:02.387Z,15.38
2023-05-09T23:13:29.508Z,15.59
2023-05-09T23:15:56.498Z,15.77
2023-05-09T23:18:23.380Z,15.87
2023-05-09T23:20:50.322Z,15.93
2023-05-09T23:23:27.197Z,15.95
2023-05-09T23:25:56.035Z,15.82
2023-05-09T23:28:23.480Z,15.87
2023-05-09T23:30:50.359Z,15.88
2023-05-09T23:33:17.625Z,15.89
2023-05-09T23:35:44.463Z,15.85
2023-05-09T23:38:11.409Z,15.84
2023-05-09T23:40:38.315Z,15.86
2023-05-09T23:43:06.578Z,15.85
2023-05-09T23:45:33.619Z,15.74
2023-05-09T23:48:00.535Z,15.63
2023-05-09T23:50:27.439Z,15.61
2023-05-09T23:52:54.424Z,15.55
2023-05-09T23:55:21.303Z,15.46
2023-05-09T23:57:48.156Z,15.40
